Time;durP1;ratioP1;P1;durP2;ratioP2;P2;SDS_P1;SDS_P2;PMS_P1;PMS_P2;Temp;Humidity;BMP_temperature;BMP_pressure;BME280_temperature;BME280_humidity;BME280_pressure;Samples;Min_cycle;Max_cycle;Signal;HPM_P1;HPM_P2
2022/01/20 00:00:19;;;;;;;18.70;5.47;;;5.10;99.90;;;;;;5077598;28;20420;-79
2022/01/20 00:02:56;;;;;;;20.60;5.30;;;5.10;99.90;;;;;;5077653;28;20485;-80
2022/01/20 00:05:34;;;;;;;16.57;5.30;;;5.00;99.90;;;;;;5077514;28;20442;-81
2022/01/20 00:08:11;;;;;;;18.57;6.03;;;4.90;99.90;;;;;;5077089;28;20431;-81
2022/01/20 00:27:09;;;;;;;12.70;5.40;;;4.60;99.90;;;;;;5094941;28;20398;-79
2022/01/20 00:30:05;;;;;;;19.80;5.40;;;4.60;99.90;;;;;;5076867;28;20423;-79
2022/01/20 00:32:28;;;;;;;15.87;4.90;;;4.60;99.90;;;;;;5094542;28;20441;-79
2022/01/20 00:37:40;;;;;;;15.73;3.70;;;4.50;99.90;;;;;;5062986;28;20477;-79
2022/01/20 00:40:06;;;;;;;16.70;4.07;;;4.50;99.90;;;;;;5075103;28;20515;-80
2022/01/20 00:42:32;;;;;;;24.87;5.10;;;4.50;99.90;;;;;;5075913;28;20261;-79
2022/01/20 00:44:58;;;;;;;19.03;4.97;;;4.50;99.90;;;;;;5075754;28;20896;-80
2022/01/20 00:47:24;;;;;;;15.13;4.27;;;4.50;99.90;;;;;;5075683;28;20187;-80
2022/01/20 00:49:49;;;;;;;10.13;3.83;;;4.50;99.90;;;;;;5075815;28;20184;-79
2022/01/20 00:52:15;;;;;;;27.87;6.17;;;4.50;99.90;;;;;;5075603;28;20824;-79
2022/01/20 00:54:41;;;;;;;13.70;3.70;;;4.40;99.90;;;;;;5075912;28;20183;-79
2022/01/20 00:57:07;;;;;;;18.10;4.93;;;4.40;99.90;;;;;;5075278;28;20528;-81
2022/01/20 00:59:34;;;;;;;21.10;5.40;;;4.40;99.90;;;;;;5075635;28;20955;-80
2022/01/20 01:02:07;;;;;;;16.53;3.83;;;4.40;99.90;;;;;;5075578;28;20471;-79
2022/01/20 01:04:33;;;;;;;11.50;3.70;;;4.40;99.90;;;;;;5075281;28;20485;-79
2022/01/20 01:09:44;;;;;;;10.30;4.47;;;4.30;99.90;;;;;;5093619;28;20409;-79
2022/01/20 01:12:17;;;;;;;11.70;4.87;;;4.30;99.90;;;;;;5075349;28;20883;-79
2022/01/20 01:14:48;;;;;;;17.67;4.10;;;4.40;99.90;;;;;;5075152;28;20426;-79
2022/01/20 01:22:29;;;;;;;14.40;3.87;;;4.30;99.90;;;;;;5093574;28;20480;-79
2022/01/20 01:24:56;;;;;;;13.80;4.50;;;4.20;99.90;;;;;;5075418;28;20422;-79
2022/01/20 01:27:27;;;;;;;17.00;4.10;;;4.20;99.90;;;;;;5075058;28;20569;-79
2022/01/20 01:32:31;;;;;;;11.97;5.00;;;4.30;99.90;;;;;;5096693;28;20830;-81
2022/01/20 01:35:00;;;;;;;22.30;4.97;;;4.20;99.90;;;;;;5077778;28;20413;-81
2022/01/20 01:39:58;;;;;;;17.80;4.63;;;4.20;99.90;;;;;;5095748;28;20892;-81
2022/01/20 01:42:31;;;;;;;17.87;4.37;;;4.30;99.90;;;;;;5076955;28;20442;-79
2022/01/20 01:45:08;;;;;;;13.30;4.60;;;4.30;99.90;;;;;;5076877;28;20615;-79
2022/01/20 01:47:34;;;;;;;12.80;4.37;;;4.40;99.90;;;;;;5077196;28;20458;-81
2022/01/20 01:50:00;;;;;;;13.90;4.03;;;4.50;99.90;;;;;;5076866;28;20424;-80
2022/01/20 01:52:26;;;;;;;15.60;4.77;;;4.50;99.90;;;;;;5076134;28;20626;-81
2022/01/20 01:54:52;;;;;;;20.17;5.70;;;4.50;99.90;;;;;;5076608;28;20189;-79
2022/01/20 01:57:17;;;;;;;12.57;4.20;;;4.50;99.90;;;;;;5076969;28;20209;-79
2022/01/20 01:59:44;;;;;;;23.23;5.37;;;4.50;99.90;;;;;;5076117;28;20173;-80
2022/01/20 02:02:10;;;;;;;14.63;5.23;;;4.50;99.90;;;;;;5075829;28;21023;-79
2022/01/20 02:04:35;;;;;;;14.47;5.00;;;4.60;99.90;;;;;;5076534;28;20412;-81
2022/01/20 02:20:57;;;;;;;11.17;4.90;;;4.80;99.90;;;;;;5038724;28;20418;-81
2022/01/20 02:23:25;;;;;;;14.63;5.10;;;4.80;99.90;;;;;;5075897;28;20953;-81
2022/01/20 02:25:51;;;;;;;9.77;3.50;;;4.80;99.90;;;;;;5076431;28;20569;-80
2022/01/20 02:28:17;;;;;;;12.43;3.80;;;4.90;99.90;;;;;;5076552;28;20467;-79
2022/01/20 02:30:43;;;;;;;14.97;3.40;;;4.90;99.90;;;;;;5076244;28;20220;-80
2022/01/20 02:33:12;;;;;;;12.97;4.10;;;4.80;99.90;;;;;;5076107;28;20195;-79
2022/01/20 02:35:44;;;;;;;15.60;5.10;;;4.80;99.90;;;;;;5075866;28;20423;-81
2022/01/20 02:45:54;;;;;;;9.03;4.03;;;4.70;99.90;;;;;;5094833;28;20413;-79
2022/01/20 02:48:20;;;;;;;12.50;2.90;;;4.70;99.90;;;;;;5075347;28;20419;-80
2022/01/20 02:50:46;;;;;;;12.20;4.53;;;4.70;99.90;;;;;;5075465;28;20453;-80
2022/01/20 02:53:12;;;;;;;14.73;3.73;;;4.70;99.90;;;;;;5075868;28;20454;-82
2022/01/20 02:55:38;;;;;;;5.43;2.97;;;4.70;99.90;;;;;;5075374;28;20189;-79
2022/01/20 02:58:05;;;;;;;9.13;3.20;;;4.70;99.90;;;;;;5075020;28;20204;-80
2022/01/20 03:00:33;;;;;;;12.83;3.73;;;4.70;99.90;;;;;;5075244;28;20415;-79
2022/01/20 03:03:00;;;;;;;8.30;3.20;;;4.70;99.90;;;;;;5074977;28;20447;-79
2022/01/20 03:05:26;;;;;;;6.97;3.10;;;4.70;99.90;;;;;;5078207;28;20467;-79
2022/01/20 03:07:52;;;;;;;12.03;4.03;;;4.70;99.90;;;;;;5078116;28;20426;-79
2022/01/20 03:10:18;;;;;;;11.50;3.23;;;4.70;99.90;;;;;;5078978;28;20541;-79
2022/01/20 03:12:44;;;;;;;9.00;4.37;;;4.70;99.90;;;;;;5078824;28;20204;-79
2022/01/20 03:15:10;;;;;;;10.27;3.17;;;4.60;99.90;;;;;;5078712;28;20176;-79
2022/01/20 03:17:36;;;;;;;8.30;2.80;;;4.60;99.90;;;;;;5078184;28;20504;-80
2022/01/20 03:20:02;;;;;;;6.83;3.13;;;4.50;99.90;;;;;;5078477;28;20533;-79
2022/01/20 03:22:28;;;;;;;10.50;4.40;;;4.50;99.90;;;;;;5078961;28;20205;-79
2022/01/20 03:24:55;;;;;;;11.53;2.97;;;4.40;99.90;;;;;;5078694;28;20411;-79
2022/01/20 03:27:21;;;;;;;9.03;5.13;;;4.40;99.90;;;;;;5078436;28;20198;-81
2022/01/20 03:29:47;;;;;;;8.13;3.13;;;4.30;99.90;;;;;;5078116;28;20432;-79
2022/01/20 03:32:12;;;;;;;7.30;2.60;;;4.40;99.90;;;;;;5078019;28;20286;-79
2022/01/20 03:34:38;;;;;;;6.10;2.60;;;4.30;99.90;;;;;;5078210;28;20657;-79
2022/01/20 03:37:05;;;;;;;15.63;3.20;;;4.30;99.90;;;;;;5078000;28;20324;-79
2022/01/20 03:39:33;;;;;;;10.23;3.03;;;4.40;99.90;;;;;;5077532;28;20250;-79
2022/01/20 03:41:59;;;;;;;10.80;3.07;;;4.40;99.90;;;;;;5077331;28;20438;-80
2022/01/20 03:44:25;;;;;;;8.30;3.30;;;4.50;99.90;;;;;;5078246;28;20438;-79
2022/01/20 03:46:51;;;;;;;12.10;4.27;;;4.50;99.90;;;;;;5077701;28;20180;-79
2022/01/20 03:52:01;;;;;;;12.50;3.90;;;4.50;99.90;;;;;;5095795;28;20449;-79
2022/01/20 03:54:27;;;;;;;8.50;2.47;;;4.60;99.90;;;;;;5096975;22;20490;-84
2022/01/20 03:56:52;;;;;;;12.53;3.40;;;4.60;99.90;;;;;;5094024;28;20915;-85
2022/01/20 03:59:18;;;;;;;13.10;3.60;;;4.60;99.90;;;;;;5076017;28;20198;-84
2022/01/20 04:01:45;;;;;;;5.70;2.40;;;4.60;99.90;;;;;;5094398;28;20173;-84
2022/01/20 04:04:10;;;;;;;10.73;3.30;;;4.50;99.90;;;;;;5075936;28;20204;-84
2022/01/20 04:06:36;;;;;;;7.60;2.73;;;4.50;99.90;;;;;;5075555;28;20986;-84
2022/01/20 04:09:02;;;;;;;5.63;2.50;;;4.40;99.90;;;;;;5094120;28;20170;-84
2022/01/20 04:11:28;;;;;;;9.47;2.23;;;4.40;99.90;;;;;;5075783;28;20175;-84
2022/01/20 04:13:55;;;;;;;9.97;2.80;;;4.20;99.90;;;;;;5075647;28;20193;-84
2022/01/20 04:16:32;;;;;;;11.93;2.23;;;4.30;99.90;;;;;;5093529;28;20414;-84
2022/01/20 04:18:59;;;;;;;8.80;2.57;;;4.20;99.90;;;;;;5075582;28;20453;-85
2022/01/20 04:21:30;;;;;;;9.23;3.43;;;4.10;99.90;;;;;;5075768;28;20411;-84
2022/01/20 04:23:58;;;;;;;8.43;3.00;;;4.10;99.90;;;;;;5093793;28;20455;-84
2022/01/20 04:26:24;;;;;;;9.17;2.47;;;4.20;99.90;;;;;;5075557;28;20489;-85
2022/01/20 04:28:55;;;;;;;11.07;2.73;;;4.20;99.90;;;;;;5075271;28;20510;-84
2022/01/20 04:31:25;;;;;;;13.17;2.70;;;4.20;99.90;;;;;;5075483;28;20432;-83
2022/01/20 04:33:52;;;;;;;7.73;2.73;;;4.10;99.90;;;;;;5093406;28;20420;-84
2022/01/20 04:36:17;;;;;;;5.33;2.23;;;4.10;99.90;;;;;;5093511;28;20404;-85
2022/01/20 04:38:43;;;;;;;11.60;2.57;;;4.10;99.90;;;;;;5093294;28;20454;-84
2022/01/20 04:41:09;;;;;;;6.73;2.90;;;4.20;99.90;;;;;;5075276;28;20247;-84
2022/01/20 04:43:35;;;;;;;8.03;2.97;;;4.30;99.90;;;;;;5074995;28;20214;-84
2022/01/20 04:46:12;;;;;;;9.07;2.67;;;4.40;99.90;;;;;;5075047;28;20546;-85
2022/01/20 04:48:59;;;;;;;9.50;2.83;;;4.40;99.90;;;;;;5092990;28;20408;-85
2022/01/20 04:57:02;;;;;;;8.47;2.70;;;4.50;99.90;;;;;;5072499;28;20414;-84
2022/01/20 04:59:29;;;;;;;11.70;3.80;;;4.50;99.90;;;;;;5054719;28;21015;-84
2022/01/20 05:01:54;;;;;;;13.30;3.50;;;4.60;99.90;;;;;;5064456;28;20439;-85
2022/01/20 05:04:22;;;;;;;11.83;3.20;;;4.60;99.90;;;;;;5083805;28;20473;-84
2022/01/20 05:06:49;;;;;;;6.07;2.30;;;4.60;99.90;;;;;;5066183;28;20192;-84
2022/01/20 05:09:19;;;;;;;11.00;3.63;;;4.60;99.90;;;;;;5064569;28;20434;-85
2022/01/20 05:11:49;;;;;;;9.27;2.63;;;4.60;99.90;;;;;;5065917;28;20423;-85
2022/01/20 05:14:15;;;;;;;6.53;3.00;;;4.50;99.90;;;;;;5065210;28;20512;-84
2022/01/20 05:16:40;;;;;;;7.00;2.63;;;4.50;99.90;;;;;;5075881;28;20424;-85
2022/01/20 05:19:06;;;;;;;6.90;2.60;;;4.50;99.90;;;;;;5059844;28;20209;-84
2022/01/20 05:21:32;;;;;;;14.27;4.40;;;4.50;99.90;;;;;;5044986;28;20182;-84
2022/01/20 05:23:58;;;;;;;7.17;2.77;;;4.50;99.90;;;;;;5045134;28;20441;-84
2022/01/20 05:26:23;;;;;;;7.73;2.93;;;4.60;99.90;;;;;;5044069;28;20188;-84
2022/01/20 05:28:49;;;;;;;10.37;3.40;;;4.60;99.90;;;;;;5062792;28;20192;-84
2022/01/20 05:31:14;;;;;;;10.77;3.23;;;4.70;99.90;;;;;;5042926;28;20203;-84
2022/01/20 05:33:40;;;;;;;11.20;3.50;;;4.60;99.90;;;;;;5043461;28;20247;-84
2022/01/20 05:36:05;;;;;;;12.77;3.67;;;4.60;99.90;;;;;;5043436;28;20201;-84
2022/01/20 05:38:31;;;;;;;8.10;2.97;;;4.60;99.90;;;;;;5058728;28;20569;-84
2022/01/20 05:40:57;;;;;;;11.20;3.60;;;4.50;99.90;;;;;;5034151;28;20186;-84
2022/01/20 05:43:22;;;;;;;10.53;3.70;;;4.50;99.90;;;;;;5051912;28;20628;-85
2022/01/20 05:45:48;;;;;;;17.73;3.60;;;4.50;99.90;;;;;;5034269;28;20224;-84
2022/01/20 05:48:16;;;;;;;6.97;2.53;;;4.30;99.90;;;;;;5051896;28;20790;-84
2022/01/20 05:50:43;;;;;;;8.57;3.23;;;4.30;99.90;;;;;;5034107;28;20560;-84
2022/01/20 05:53:09;;;;;;;9.97;2.67;;;4.20;99.90;;;;;;5034078;28;20423;-84
2022/01/20 05:55:35;;;;;;;5.53;2.30;;;4.20;99.90;;;;;;5051816;28;20508;-84
2022/01/20 05:58:02;;;;;;;5.07;2.70;;;4.20;99.90;;;;;;5051859;28;20269;-84
2022/01/20 06:00:28;;;;;;;5.33;2.27;;;4.20;99.90;;;;;;5034137;28;20972;-84
2022/01/20 06:05:39;;;;;;;4.47;2.50;;;4.20;99.90;;;;;;5051756;28;20808;-83
2022/01/20 06:08:05;;;;;;;5.10;2.00;;;4.20;99.90;;;;;;5051622;28;20899;-84
2022/01/20 06:10:33;;;;;;;5.70;1.70;;;4.30;99.90;;;;;;5051962;28;20416;-84
2022/01/20 06:12:59;;;;;;;3.80;1.73;;;4.40;99.90;;;;;;5051876;28;20420;-84
2022/01/20 06:15:25;;;;;;;11.17;2.83;;;4.40;99.90;;;;;;5033734;28;21035;-84
2022/01/20 06:17:51;;;;;;;6.30;2.27;;;4.40;99.90;;;;;;5051611;28;20471;-85
2022/01/20 06:20:16;;;;;;;4.43;2.33;;;4.40;99.90;;;;;;5052542;28;20188;-84
2022/01/20 06:22:42;;;;;;;6.17;1.93;;;4.40;99.90;;;;;;5071759;28;20174;-83
2022/01/20 06:25:08;;;;;;;4.60;1.73;;;4.40;99.90;;;;;;5071670;28;20673;-84
2022/01/20 06:27:34;;;;;;;5.83;3.03;;;4.30;99.90;;;;;;5053475;28;20192;-84
2022/01/20 06:30:00;;;;;;;7.57;3.30;;;4.30;99.90;;;;;;5071943;28;20220;-83
2022/01/20 06:32:27;;;;;;;9.83;2.67;;;4.30;99.90;;;;;;5053586;28;20513;-84
2022/01/20 06:34:52;;;;;;;7.17;2.30;;;4.30;99.90;;;;;;5053955;28;21254;-83
2022/01/20 06:37:18;;;;;;;11.07;2.17;;;4.30;99.90;;;;;;5071692;28;20421;-83
2022/01/20 06:39:44;;;;;;;7.60;1.97;;;4.00;99.90;;;;;;5059157;28;20184;-83
2022/01/20 06:42:10;;;;;;;3.50;2.00;;;3.90;99.90;;;;;;5060469;28;20265;-83
2022/01/20 06:44:35;;;;;;;6.30;2.50;;;3.80;99.90;;;;;;5062785;28;20917;-83
2022/01/20 06:47:01;;;;;;;7.40;2.00;;;3.90;99.90;;;;;;5061708;28;20313;-84
2022/01/20 06:49:27;;;;;;;6.70;2.10;;;3.90;99.90;;;;;;5061210;28;20198;-83
2022/01/20 06:51:52;;;;;;;10.93;2.73;;;3.90;99.90;;;;;;5075263;28;20433;-84
2022/01/20 06:54:18;;;;;;;11.27;3.10;;;3.90;99.90;;;;;;5075033;28;20634;-84
2022/01/20 06:56:44;;;;;;;8.27;3.00;;;3.90;99.90;;;;;;5057219;28;20227;-84
2022/01/20 06:59:14;;;;;;;8.03;3.50;;;3.90;99.90;;;;;;5075056;28;20250;-84
2022/01/20 07:01:41;;;;;;;5.53;2.43;;;3.90;99.90;;;;;;5057011;28;20180;-83
2022/01/20 07:04:09;;;;;;;6.83;3.20;;;3.90;99.90;;;;;;5074776;28;20496;-83
2022/01/20 07:06:34;;;;;;;5.40;2.50;;;3.80;99.90;;;;;;5056595;28;20422;-85
2022/01/20 07:09:00;;;;;;;5.90;2.80;;;3.90;99.90;;;;;;5056678;28;20523;-84
2022/01/20 07:11:25;;;;;;;6.77;2.50;;;3.90;99.90;;;;;;5056580;28;20638;-85
2022/01/20 07:13:51;;;;;;;3.83;2.10;;;4.00;99.90;;;;;;5057641;28;20577;-84
2022/01/20 07:16:17;;;;;;;10.80;2.80;;;4.00;99.90;;;;;;5058996;28;20190;-84
2022/01/20 07:18:42;;;;;;;3.77;2.40;;;4.00;99.90;;;;;;5066586;28;20251;-83
2022/01/20 07:21:08;;;;;;;6.27;3.00;;;4.00;99.90;;;;;;5076334;28;20189;-83
2022/01/20 07:23:33;;;;;;;5.33;2.20;;;4.00;99.90;;;;;;5070088;28;20184;-83
2022/01/20 07:25:59;;;;;;;7.03;2.17;;;4.00;99.90;;;;;;5074811;28;20180;-83
2022/01/20 07:28:24;;;;;;;6.23;2.70;;;4.00;99.90;;;;;;5063730;28;20599;-84
2022/01/20 07:30:50;;;;;;;6.70;2.30;;;4.00;99.90;;;;;;5064026;28;20187;-83
2022/01/20 07:33:16;;;;;;;4.67;2.07;;;4.00;99.90;;;;;;5064020;28;20185;-83
2022/01/20 07:35:41;;;;;;;7.67;2.20;;;4.10;99.90;;;;;;5044579;28;20219;-84
2022/01/20 07:38:07;;;;;;;5.90;2.40;;;4.10;99.90;;;;;;5044056;28;20555;-83
2022/01/20 07:40:34;;;;;;;7.70;2.20;;;4.10;99.90;;;;;;5062774;28;20239;-83
2022/01/20 07:43:00;;;;;;;10.00;2.73;;;4.00;99.90;;;;;;5062260;28;20423;-83
2022/01/20 07:45:26;;;;;;;10.47;2.53;;;4.00;99.90;;;;;;5061536;28;20445;-83
2022/01/20 07:47:52;;;;;;;4.90;2.20;;;4.00;99.90;;;;;;5061080;28;20479;-84
2022/01/20 07:50:17;;;;;;;12.70;2.70;;;3.90;99.90;;;;;;5042625;28;20238;-83
2022/01/20 07:52:43;;;;;;;6.80;1.80;;;3.90;99.90;;;;;;5041728;28;20421;-83
2022/01/20 07:55:09;;;;;;;13.73;1.73;;;3.90;99.90;;;;;;5059331;28;20591;-83
2022/01/20 07:57:35;;;;;;;7.33;2.17;;;3.90;99.90;;;;;;5040950;28;20208;-83
2022/01/20 08:00:03;;;;;;;8.40;3.00;;;3.90;99.90;;;;;;5060340;28;20414;-83
2022/01/20 08:02:28;;;;;;;4.10;1.93;;;3.90;99.90;;;;;;5040906;28;20459;-83
2022/01/20 08:04:54;;;;;;;6.43;2.67;;;4.00;99.90;;;;;;5040967;28;20511;-83
2022/01/20 08:07:20;;;;;;;7.30;2.70;;;4.00;99.90;;;;;;5040792;28;20179;-83
2022/01/20 08:09:46;;;;;;;8.23;2.03;;;4.00;99.90;;;;;;5041354;28;20310;-83
2022/01/20 08:12:11;;;;;;;6.67;2.13;;;3.90;99.90;;;;;;5041764;28;20440;-83
2022/01/20 08:14:39;;;;;;;10.20;1.83;;;3.90;99.90;;;;;;5053715;28;20206;-83
2022/01/20 08:17:05;;;;;;;10.87;2.30;;;3.80;99.90;;;;;;5035281;28;20647;-83
2022/01/20 08:19:30;;;;;;;11.70;3.60;;;3.70;99.90;;;;;;5053497;28;20507;-83
2022/01/20 08:21:56;;;;;;;8.63;1.90;;;3.70;99.90;;;;;;5035416;28;20177;-83
2022/01/20 08:24:21;;;;;;;10.00;2.67;;;3.70;99.90;;;;;;5053617;28;20282;-83
2022/01/20 08:26:47;;;;;;;8.10;3.10;;;3.80;99.90;;;;;;5052982;28;20180;-83
2022/01/20 08:29:12;;;;;;;11.00;2.60;;;4.00;99.90;;;;;;5035464;28;20181;-83
2022/01/20 08:31:38;;;;;;;5.70;2.20;;;4.20;99.90;;;;;;5035214;28;20283;-83
2022/01/20 08:34:04;;;;;;;6.40;2.47;;;4.30;99.90;;;;;;5053071;28;20205;-83
2022/01/20 08:36:29;;;;;;;5.83;2.57;;;4.40;99.90;;;;;;5052563;28;20179;-83
2022/01/20 08:38:55;;;;;;;6.43;2.93;;;4.50;99.90;;;;;;5035145;28;20306;-83
2022/01/20 08:41:20;;;;;;;8.03;2.27;;;4.60;99.90;;;;;;5035015;28;20471;-83
2022/01/20 08:43:46;;;;;;;6.87;2.53;;;4.70;99.90;;;;;;5052841;28;20655;-83
2022/01/20 08:46:13;;;;;;;13.10;3.53;;;4.60;99.90;;;;;;5058733;28;20192;-83
2022/01/20 08:48:39;;;;;;;10.07;3.10;;;4.60;99.90;;;;;;5075343;28;20179;-84
2022/01/20 08:51:07;;;;;;;10.40;2.70;;;4.60;99.90;;;;;;5061875;28;20431;-83
2022/01/20 08:53:33;;;;;;;6.23;2.50;;;4.70;99.90;;;;;;5072458;28;20404;-84
2022/01/20 08:55:59;;;;;;;5.67;2.50;;;4.70;99.90;;;;;;5053353;28;20429;-83
2022/01/20 08:58:25;;;;;;;7.60;2.60;;;4.60;99.90;;;;;;5057003;28;20217;-83
2022/01/20 09:00:51;;;;;;;7.53;2.53;;;4.50;99.90;;;;;;5053095;28;20412;-84
2022/01/20 09:03:17;;;;;;;6.73;2.30;;;4.30;99.90;;;;;;5055470;28;20944;-84
2022/01/20 09:05:43;;;;;;;4.90;2.77;;;4.30;99.90;;;;;;5060292;28;20411;-82
2022/01/20 09:08:10;;;;;;;10.33;2.70;;;4.30;99.90;;;;;;5084447;28;20233;-84
2022/01/20 09:10:42;;;;;;;7.37;2.33;;;4.50;99.90;;;;;;5054911;28;20317;-84
2022/01/20 09:15:56;;;;;;;5.60;2.63;;;4.90;99.90;;;;;;5073768;28;20420;-84
2022/01/20 09:18:24;;;;;;;7.30;2.10;;;4.90;99.90;;;;;;5053834;28;20562;-85
2022/01/20 09:20:49;;;;;;;6.40;2.90;;;4.90;99.90;;;;;;5055459;28;20430;-85
2022/01/20 09:23:15;;;;;;;4.70;1.60;;;4.80;99.90;;;;;;5054071;28;20415;-85
2022/01/20 09:25:42;;;;;;;7.20;1.60;;;4.80;99.90;;;;;;5053863;28;20204;-84
2022/01/20 09:28:08;;;;;;;3.20;1.60;;;4.60;99.90;;;;;;5030692;28;20208;-85
2022/01/20 09:30:36;;;;;;;4.57;1.23;;;4.60;99.90;;;;;;5029207;28;20423;-84
2022/01/20 09:35:35;;;;;;;5.50;1.40;;;4.50;99.90;;;;;;5052668;28;20469;-84
2022/01/20 09:38:02;;;;;;;5.90;1.30;;;4.50;99.90;;;;;;5035701;28;20534;-84
2022/01/20 09:40:34;;;;;;;2.47;1.03;;;4.50;99.90;;;;;;5054237;28;21025;-84
2022/01/20 09:43:00;;;;;;;5.87;1.23;;;4.70;99.90;;;;;;5065123;28;20434;-84
2022/01/20 09:45:26;;;;;;;4.67;1.33;;;4.70;99.90;;;;;;5054343;28;20434;-85
2022/01/20 09:47:52;;;;;;;4.53;1.20;;;4.70;99.90;;;;;;5053894;28;20457;-84
2022/01/20 09:50:20;;;;;;;3.60;1.60;;;4.60;99.90;;;;;;5072014;28;20409;-85
2022/01/20 09:52:47;;;;;;;8.23;2.03;;;4.70;99.90;;;;;;5054338;28;20773;-84
2022/01/20 09:55:13;;;;;;;5.13;1.50;;;4.70;99.90;;;;;;5068570;22;20462;-83
2022/01/20 09:57:39;;;;;;;5.70;1.53;;;4.80;99.90;;;;;;5029060;28;20477;-88
2022/01/20 10:00:09;;;;;;;3.97;1.30;;;5.10;99.90;;;;;;5061839;28;20942;-86
2022/01/20 10:02:35;;;;;;;4.00;1.50;;;5.20;99.90;;;;;;5054595;28;20187;-87
2022/01/20 10:05:01;;;;;;;7.00;1.20;;;5.20;99.90;;;;;;5038837;28;20421;-85
2022/01/20 10:07:34;;;;;;;5.90;2.10;;;5.20;99.90;;;;;;5035940;28;20271;-86
2022/01/20 10:10:00;;;;;;;6.17;2.10;;;5.30;99.90;;;;;;5054676;28;20448;-85
2022/01/20 10:12:31;;;;;;;7.00;1.73;;;5.20;99.90;;;;;;5036132;28;20461;-85
2022/01/20 10:14:58;;;;;;;3.40;1.40;;;5.40;99.90;;;;;;5038165;28;20432;-89
2022/01/20 10:17:27;;;;;;;8.93;1.60;;;5.60;99.90;;;;;;5037675;28;20417;-87
2022/01/20 10:19:55;;;;;;;5.57;2.00;;;5.70;99.90;;;;;;5039964;28;20425;-85
2022/01/20 10:22:23;;;;;;;3.23;1.33;;;5.80;99.90;;;;;;5038892;28;20430;-87
2022/01/20 10:25:08;;;;;;;3.60;1.50;;;5.50;99.90;;;;;;5038362;28;20421;-86
2022/01/20 10:27:54;;;;;;;6.23;2.37;;;5.30;99.90;;;;;;5037356;28;20425;-87
2022/01/20 10:30:23;;;;;;;5.60;1.77;;;5.10;99.90;;;;;;5055996;28;20412;-85
2022/01/20 10:32:51;;;;;;;9.43;2.80;;;5.10;99.90;;;;;;5038242;28;20457;-86
2022/01/20 10:35:23;;;;;;;7.97;2.77;;;5.00;99.90;;;;;;5037420;28;20930;-85
2022/01/20 10:38:14;;;;;;;5.67;1.67;;;4.90;99.90;;;;;;5037998;28;20464;-87
2022/01/20 10:40:56;;;;;;;7.90;1.50;;;4.90;99.90;;;;;;5037340;28;20931;-87
2022/01/20 10:43:33;;;;;;;7.00;1.83;;;4.80;99.90;;;;;;5055436;28;20396;-88
2022/01/20 10:46:11;;;;;;;10.43;2.57;;;4.70;99.90;;;;;;5055018;28;20464;-84
2022/01/20 10:48:38;;;;;;;3.10;1.40;;;4.70;99.90;;;;;;5037887;28;20434;-87
2022/01/20 10:51:15;;;;;;;3.80;1.47;;;4.70;99.90;;;;;;5037958;28;20423;-89
2022/01/20 10:53:41;;;;;;;6.50;2.70;;;4.70;99.90;;;;;;5037439;28;20416;-87
2022/01/20 10:56:07;;;;;;;3.60;1.53;;;4.70;99.90;;;;;;5036989;28;20461;-88
2022/01/20 10:58:33;;;;;;;4.67;1.67;;;4.70;99.90;;;;;;5054737;28;20209;-86
2022/01/20 11:01:00;;;;;;;5.10;2.37;;;4.90;99.90;;;;;;5036913;28;20195;-86
2022/01/20 11:03:27;;;;;;;6.40;2.00;;;5.20;99.90;;;;;;5037188;28;20426;-85
2022/01/20 11:05:54;;;;;;;8.10;2.97;;;5.30;99.90;;;;;;5037869;28;20444;-86
2022/01/20 11:08:21;;;;;;;5.00;2.93;;;5.20;99.90;;;;;;5038130;28;20456;-87
2022/01/20 11:10:46;;;;;;;8.77;1.60;;;5.20;99.90;;;;;;5038490;28;20530;-87
2022/01/20 11:13:15;;;;;;;9.60;2.10;;;5.10;99.90;;;;;;5037917;28;20774;-86
2022/01/20 11:15:42;;;;;;;7.77;3.93;;;5.10;99.90;;;;;;5037662;28;20213;-87
2022/01/20 11:18:09;;;;;;;9.37;1.80;;;5.00;99.90;;;;;;5037677;28;20467;-86
2022/01/20 11:20:46;;;;;;;6.67;1.70;;;4.70;99.90;;;;;;5037884;28;20787;-88
2022/01/20 11:23:12;;;;;;;7.00;3.57;;;4.60;99.90;;;;;;5056145;28;20917;-88
2022/01/20 11:25:40;;;;;;;7.90;1.80;;;4.50;99.90;;;;;;5054672;28;20434;-87
2022/01/20 11:28:08;;;;;;;5.40;1.80;;;4.60;99.90;;;;;;5038019;28;20425;-85
2022/01/20 11:30:35;;;;;;;7.40;2.40;;;4.60;99.90;;;;;;5038156;28;20565;-87
2022/01/20 11:33:04;;;;;;;7.20;1.87;;;4.80;99.90;;;;;;5038591;28;20452;-86
2022/01/20 11:35:51;;;;;;;7.40;2.17;;;5.00;99.90;;;;;;5038985;28;20445;-87
2022/01/20 11:38:20;;;;;;;9.03;2.40;;;4.90;99.90;;;;;;5038183;28;20472;-84
2022/01/20 11:41:00;;;;;;;6.60;3.40;;;4.90;99.90;;;;;;5054201;28;20417;-86
2022/01/20 11:43:40;;;;;;;7.10;1.80;;;4.80;99.90;;;;;;5036750;28;20416;-84
2022/01/20 11:46:13;;;;;;;4.93;1.53;;;4.70;99.90;;;;;;5036281;28;20452;-84
2022/01/20 11:49:00;;;;;;;5.27;1.60;;;4.70;99.90;;;;;;5036496;28;21174;-85
2022/01/20 11:52:02;;;;;;;5.73;2.30;;;4.90;99.90;;;;;;5036499;28;20456;-86
2022/01/20 11:54:43;;;;;;;6.63;2.10;;;4.80;99.90;;;;;;4976287;28;20436;-86
2022/01/20 11:57:10;;;;;;;8.53;2.27;;;5.10;99.90;;;;;;5028823;28;20606;-84
2022/01/20 11:59:38;;;;;;;6.30;2.40;;;;;;;;;;5036046;28;20519;-86
2022/01/20 12:02:04;;;;;;;8.53;2.60;;;9.20;99.90;;;;;;5055561;28;20878;-87
2022/01/20 12:04:35;;;;;;;7.17;2.57;;;10.70;99.90;;;;;;5056641;28;20456;-87
2022/01/20 12:07:01;;;;;;;5.90;2.30;;;12.00;99.90;;;;;;5057064;28;20199;-88
2022/01/20 12:09:38;;;;;;;4.97;1.80;;;12.90;99.90;;;;;;5039415;28;21010;-85
2022/01/20 12:12:06;;;;;;;7.30;1.90;;;13.40;99.90;;;;;;5038884;28;20414;-87
2022/01/20 12:14:35;;;;;;;8.97;2.07;;;14.20;99.90;;;;;;5040180;28;20410;-87
2022/01/20 12:17:17;;;;;;;6.10;1.97;;;14.20;99.90;;;;;;5039622;28;20445;-88
2022/01/20 12:19:52;;;;;;;7.60;2.10;;;13.90;99.90;;;;;;5057651;28;20457;-86
2022/01/20 12:22:18;;;;;;;6.93;3.40;;;13.40;99.90;;;;;;5038989;28;20449;-87
2022/01/20 12:24:51;;;;;;;9.20;2.03;;;12.80;99.90;;;;;;5038682;28;20921;-84
2022/01/20 12:27:19;;;;;;;10.23;2.80;;;11.60;99.90;;;;;;5037970;28;20253;-86
2022/01/20 12:29:45;;;;;;;9.00;2.30;;;10.90;99.90;;;;;;5037923;28;20422;-87
2022/01/20 12:32:16;;;;;;;8.20;2.23;;;11.20;99.90;;;;;;5037731;28;20422;-86
2022/01/20 12:34:43;;;;;;;7.77;2.00;;;11.10;99.90;;;;;;5037903;28;21099;-85
2022/01/20 12:37:10;;;;;;;5.03;2.13;;;10.20;99.90;;;;;;5014086;28;20502;-87
2022/01/20 12:39:39;;;;;;;8.17;2.30;;;10.00;99.90;;;;;;5015222;28;20998;-87
2022/01/20 12:42:07;;;;;;;10.30;3.00;;;11.30;99.90;;;;;;5012698;28;20427;-86
2022/01/20 12:44:48;;;;;;;10.00;2.87;;;13.00;99.90;;;;;;5012080;28;20772;-86
2022/01/20 12:47:16;;;;;;;8.13;1.80;;;12.60;99.90;;;;;;5011811;28;20470;-87
2022/01/20 12:49:41;;;;;;;6.43;2.07;;;12.10;99.90;;;;;;5013444;28;20962;-87
2022/01/20 12:52:08;;;;;;;7.80;3.10;;;11.40;99.90;;;;;;4995417;28;20445;-86
2022/01/20 12:54:35;;;;;;;7.00;2.40;;;10.20;99.90;;;;;;5020848;28;20288;-85
2022/01/20 12:57:06;;;;;;;7.20;2.10;;;9.50;99.90;;;;;;5035175;28;20461;-84
2022/01/20 12:59:38;;;;;;;7.27;2.10;;;9.30;99.90;;;;;;5053112;28;20472;-86
2022/01/20 13:02:19;;;;;;;9.57;2.83;;;9.00;99.90;;;;;;5035204;28;20944;-87
2022/01/20 13:04:45;;;;;;;9.63;2.17;;;8.40;99.90;;;;;;5035795;28;20419;-88
2022/01/20 13:07:15;;;;;;;5.20;2.30;;;8.10;99.90;;;;;;5035313;28;20433;-87
2022/01/20 13:09:50;;;;;;;4.73;1.87;;;8.00;99.90;;;;;;5035439;28;20454;-86
2022/01/20 13:12:18;;;;;;;6.40;1.83;;;7.80;99.90;;;;;;5031018;28;20422;-84
2022/01/20 13:14:51;;;;;;;7.80;1.70;;;7.80;99.90;;;;;;5013143;28;20418;-88
2022/01/20 13:17:28;;;;;;;5.90;2.27;;;8.40;99.90;;;;;;5033893;28;20442;-88
2022/01/20 13:19:56;;;;;;;8.13;2.13;;;9.00;99.90;;;;;;5027106;28;20521;-87
2022/01/20 13:22:37;;;;;;;10.40;3.60;;;8.80;99.90;;;;;;5015647;28;20426;-86
2022/01/20 13:25:25;;;;;;;9.53;1.83;;;8.80;99.90;;;;;;5016217;28;20410;-86
2022/01/20 13:27:53;;;;;;;8.97;2.70;;;9.00;99.90;;;;;;5027525;28;20419;-87
2022/01/20 13:30:26;;;;;;;4.67;2.00;;;8.70;99.90;;;;;;5023154;28;20428;-86
2022/01/20 13:32:52;;;;;;;10.30;2.27;;;8.40;99.90;;;;;;5052591;28;20409;-86
2022/01/20 13:35:18;;;;;;;6.57;2.00;;;7.90;99.90;;;;;;5034371;28;20421;-85
2022/01/20 13:37:47;;;;;;;6.63;2.13;;;7.70;99.90;;;;;;5028684;28;20882;-86
2022/01/20 13:40:19;;;;;;;4.27;2.00;;;7.50;99.90;;;;;;5016416;28;20180;-86
2022/01/20 13:45:03;;;;;;;7.07;2.20;;;7.30;99.90;;;;;;5034528;28;20805;-86
2022/01/20 13:45:38;;;;;;;8.10;2.20;;;7.00;99.90;;;;;;5052772;28;20438;-85
2022/01/20 13:48:04;;;;;;;7.57;2.40;;;6.50;99.90;;;;;;5034131;28;20501;-86
2022/01/20 13:50:34;;;;;;;5.97;1.70;;;6.10;99.90;;;;;;5049233;28;20415;-84
2022/01/20 13:53:02;;;;;;;13.20;4.27;;;6.10;99.90;;;;;;4995016;28;20415;-82
2022/01/20 13:55:35;;;;;;;5.63;1.90;;;6.20;99.90;;;;;;5013863;28;20455;-84
2022/01/20 13:58:03;;;;;;;10.30;2.03;;;6.00;99.90;;;;;;5013432;28;20521;-83
2022/01/20 14:00:34;;;;;;;5.73;1.70;;;6.00;99.90;;;;;;5018770;28;20456;-84
2022/01/20 14:03:00;;;;;;;7.70;2.00;;;6.00;99.90;;;;;;5004828;28;20740;-84
2022/01/20 14:05:31;;;;;;;9.03;2.73;;;6.10;99.90;;;;;;4995174;28;20514;-84
2022/01/20 14:07:58;;;;;;;5.20;1.80;;;6.00;99.90;;;;;;5012872;28;20233;-84